sensor_id;sensor_type;location;lat;lon;timestamp;temperature;humidity
28336;DHT22;15592;53.656;7.276;2022-08-19T00:00:23;15.20;99.90
28336;DHT22;15592;53.656;7.276;2022-08-19T00:02:49;15.20;99.90
28336;DHT22;15592;53.656;7.276;2022-08-19T00:05:15;15.20;99.90
28336;DHT22;15592;53.656;7.276;2022-08-19T00:07:43;15.20;99.90
28336;DHT22;15592;53.656;7.276;2022-08-19T00:10:11;15.20;99.90
28336;DHT22;15592;53.656;7.276;2022-08-19T00:12:37;15.20;99.90
28336;DHT22;15592;53.656;7.276;2022-08-19T00:15:09;15.20;99.90
28336;DHT22;15592;53.656;7.276;2022-08-19T00:17:42;15.20;99.90
28336;DHT22;15592;53.656;7.276;2022-08-19T00:20:10;15.20;99.90
28336;DHT22;15592;53.656;7.276;2022-08-19T00:22:37;15.10;99.90
28336;DHT22;15592;53.656;7.276;2022-08-19T00:25:05;14.90;99.90
28336;DHT22;15592;53.656;7.276;2022-08-19T00:27:30;14.90;99.90
28336;DHT22;15592;53.656;7.276;2022-08-19T00:29:56;14.90;99.90
28336;DHT22;15592;53.656;7.276;2022-08-19T00:32:22;14.90;99.90
28336;DHT22;15592;53.656;7.276;2022-08-19T00:34:47;14.90;99.90
28336;DHT22;15592;53.656;7.276;2022-08-19T00:37:13;14.90;99.90
28336;DHT22;15592;53.656;7.276;2022-08-19T00:39:38;14.90;99.90
28336;DHT22;15592;53.656;7.276;2022-08-19T00:42:04;14.90;99.90
28336;DHT22;15592;53.656;7.276;2022-08-19T00:44:31;14.90;99.90
28336;DHT22;15592;53.656;7.276;2022-08-19T00:46:58;14.80;99.90
28336;DHT22;15592;53.656;7.276;2022-08-19T00:49:44;14.80;99.90
28336;DHT22;15592;53.656;7.276;2022-08-19T00:52:19;14.80;99.90
28336;DHT22;15592;53.656;7.276;2022-08-19T00:54:46;14.70;99.90
28336;DHT22;15592;53.656;7.276;2022-08-19T00:57:16;14.80;99.90
28336;DHT22;15592;53.656;7.276;2022-08-19T00:59:44;14.80;99.90
28336;DHT22;15592;53.656;7.276;2022-08-19T01:02:11;14.80;99.90
28336;DHT22;15592;53.656;7.276;2022-08-19T01:04:37;14.80;99.90
28336;DHT22;15592;53.656;7.276;2022-08-19T01:07:03;14.70;99.90
28336;DHT22;15592;53.656;7.276;2022-08-19T01:09:29;14.70;99.90
28336;DHT22;15592;53.656;7.276;2022-08-19T01:11:56;14.60;99.90
28336;DHT22;15592;53.656;7.276;2022-08-19T01:14:22;14.50;99.90
28336;DHT22;15592;53.656;7.276;2022-08-19T01:16:48;14.50;99.90
28336;DHT22;15592;53.656;7.276;2022-08-19T01:19:24;14.50;99.90
28336;DHT22;15592;53.656;7.276;2022-08-19T01:22:12;14.50;99.90
28336;DHT22;15592;53.656;7.276;2022-08-19T01:24:40;14.50;99.90
28336;DHT22;15592;53.656;7.276;2022-08-19T01:27:06;14.40;99.90
28336;DHT22;15592;53.656;7.276;2022-08-19T01:29:33;14.40;99.90
28336;DHT22;15592;53.656;7.276;2022-08-19T01:32:01;14.40;99.90
28336;DHT22;15592;53.656;7.276;2022-08-19T01:34:26;14.40;99.90
28336;DHT22;15592;53.656;7.276;2022-08-19T01:36:52;14.40;99.90
28336;DHT22;15592;53.656;7.276;2022-08-19T01:39:23;14.30;99.90
28336;DHT22;15592;53.656;7.276;2022-08-19T01:41:49;14.30;99.90
28336;DHT22;15592;53.656;7.276;2022-08-19T01:44:16;14.20;99.90
28336;DHT22;15592;53.656;7.276;2022-08-19T01:46:42;14.20;99.90
28336;DHT22;15592;53.656;7.276;2022-08-19T01:49:08;14.10;99.90
28336;DHT22;15592;53.656;7.276;2022-08-19T01:51:34;14.10;99.90
28336;DHT22;15592;53.656;7.276;2022-08-19T01:54:00;14.00;99.90
28336;DHT22;15592;53.656;7.276;2022-08-19T01:56:26;14.00;99.90
28336;DHT22;15592;53.656;7.276;2022-08-19T01:59:00;14.00;99.90
28336;DHT22;15592;53.656;7.276;2022-08-19T02:01:26;14.00;99.90
28336;DHT22;15592;53.656;7.276;2022-08-19T02:03:51;14.00;99.90
28336;DHT22;15592;53.656;7.276;2022-08-19T02:06:19;14.00;99.90
28336;DHT22;15592;53.656;7.276;2022-08-19T02:08:45;14.00;99.90
28336;DHT22;15592;53.656;7.276;2022-08-19T02:11:19;14.00;99.90
28336;DHT22;15592;53.656;7.276;2022-08-19T02:13:45;14.00;99.90
28336;DHT22;15592;53.656;7.276;2022-08-19T02:16:11;14.00;99.90
28336;DHT22;15592;53.656;7.276;2022-08-19T02:18:37;14.00;99.90
28336;DHT22;15592;53.656;7.276;2022-08-19T02:21:02;14.00;99.90
28336;DHT22;15592;53.656;7.276;2022-08-19T02:23:28;13.90;99.90
28336;DHT22;15592;53.656;7.276;2022-08-19T02:25:54;13.90;99.90
28336;DHT22;15592;53.656;7.276;2022-08-19T02:28:19;13.90;99.90
28336;DHT22;15592;53.656;7.276;2022-08-19T02:30:46;13.90;99.90
28336;DHT22;15592;53.656;7.276;2022-08-19T02:33:12;13.90;99.90
28336;DHT22;15592;53.656;7.276;2022-08-19T02:35:44;13.90;99.90
28336;DHT22;15592;53.656;7.276;2022-08-19T02:38:10;13.90;99.90
28336;DHT22;15592;53.656;7.276;2022-08-19T02:41:00;14.00;99.90
28336;DHT22;15592;53.656;7.276;2022-08-19T02:43:28;13.90;99.90
28336;DHT22;15592;53.656;7.276;2022-08-19T02:45:54;13.90;99.90
28336;DHT22;15592;53.656;7.276;2022-08-19T02:48:22;13.90;99.90
28336;DHT22;15592;53.656;7.276;2022-08-19T02:50:51;13.90;99.90
28336;DHT22;15592;53.656;7.276;2022-08-19T02:53:21;13.90;99.90
28336;DHT22;15592;53.656;7.276;2022-08-19T02:55:49;13.90;99.90
28336;DHT22;15592;53.656;7.276;2022-08-19T02:58:15;13.90;99.90
28336;DHT22;15592;53.656;7.276;2022-08-19T03:00:59;13.90;99.90
28336;DHT22;15592;53.656;7.276;2022-08-19T03:03:25;13.90;99.90
28336;DHT22;15592;53.656;7.276;2022-08-19T03:05:51;13.90;99.90
28336;DHT22;15592;53.656;7.276;2022-08-19T03:08:17;13.90;99.90
28336;DHT22;15592;53.656;7.276;2022-08-19T03:10:45;13.80;99.90
28336;DHT22;15592;53.656;7.276;2022-08-19T03:13:17;13.90;99.90
28336;DHT22;15592;53.656;7.276;2022-08-19T03:15:45;13.80;99.90
28336;DHT22;15592;53.656;7.276;2022-08-19T03:18:11;13.80;99.90
28336;DHT22;15592;53.656;7.276;2022-08-19T03:20:50;13.80;99.90
28336;DHT22;15592;53.656;7.276;2022-08-19T03:23:18;13.80;99.90
28336;DHT22;15592;53.656;7.276;2022-08-19T03:25:46;13.80;99.90
28336;DHT22;15592;53.656;7.276;2022-08-19T03:28:14;13.80;99.90
28336;DHT22;15592;53.656;7.276;2022-08-19T03:30:41;13.80;99.90
28336;DHT22;15592;53.656;7.276;2022-08-19T03:33:08;13.70;99.90
28336;DHT22;15592;53.656;7.276;2022-08-19T03:35:34;13.80;99.90
28336;DHT22;15592;53.656;7.276;2022-08-19T03:38:03;13.70;99.90
28336;DHT22;15592;53.656;7.276;2022-08-19T03:40:28;13.80;99.90
28336;DHT22;15592;53.656;7.276;2022-08-19T03:42:56;13.80;99.90
28336;DHT22;15592;53.656;7.276;2022-08-19T03:45:22;13.80;99.90
28336;DHT22;15592;53.656;7.276;2022-08-19T03:47:48;13.80;99.90
28336;DHT22;15592;53.656;7.276;2022-08-19T03:50:13;13.80;99.90
28336;DHT22;15592;53.656;7.276;2022-08-19T03:52:39;13.80;99.90
28336;DHT22;15592;53.656;7.276;2022-08-19T03:55:05;13.80;99.90
28336;DHT22;15592;53.656;7.276;2022-08-19T03:57:31;13.80;99.90
28336;DHT22;15592;53.656;7.276;2022-08-19T03:59:57;13.80;99.90
28336;DHT22;15592;53.656;7.276;2022-08-19T04:02:23;13.70;99.90
28336;DHT22;15592;53.656;7.276;2022-08-19T04:04:49;13.80;99.90
28336;DHT22;15592;53.656;7.276;2022-08-19T04:07:21;13.80;99.90
28336;DHT22;15592;53.656;7.276;2022-08-19T04:09:47;13.80;99.90
28336;DHT22;15592;53.656;7.276;2022-08-19T04:12:13;13.90;99.90
28336;DHT22;15592;53.656;7.276;2022-08-19T04:14:40;13.90;99.90
28336;DHT22;15592;53.656;7.276;2022-08-19T04:17:07;13.90;99.90
28336;DHT22;15592;53.656;7.276;2022-08-19T04:19:34;13.90;99.90
28336;DHT22;15592;53.656;7.276;2022-08-19T04:22:00;13.90;99.90
28336;DHT22;15592;53.656;7.276;2022-08-19T04:24:26;13.90;99.90
28336;DHT22;15592;53.656;7.276;2022-08-19T04:26:52;13.90;99.90
28336;DHT22;15592;53.656;7.276;2022-08-19T04:29:23;13.90;99.90
28336;DHT22;15592;53.656;7.276;2022-08-19T04:31:50;13.90;99.90
28336;DHT22;15592;53.656;7.276;2022-08-19T04:34:18;13.90;99.90
28336;DHT22;15592;53.656;7.276;2022-08-19T04:36:48;13.90;99.90
28336;DHT22;15592;53.656;7.276;2022-08-19T04:39:19;13.90;99.90
28336;DHT22;15592;53.656;7.276;2022-08-19T04:41:46;13.90;99.90
28336;DHT22;15592;53.656;7.276;2022-08-19T04:44:33;13.90;99.90
28336;DHT22;15592;53.656;7.276;2022-08-19T04:47:00;14.00;99.90
28336;DHT22;15592;53.656;7.276;2022-08-19T04:49:26;13.90;99.90
28336;DHT22;15592;53.656;7.276;2022-08-19T04:51:53;13.90;99.90
28336;DHT22;15592;53.656;7.276;2022-08-19T04:54:24;13.90;99.90
28336;DHT22;15592;53.656;7.276;2022-08-19T04:56:51;14.00;99.90
28336;DHT22;15592;53.656;7.276;2022-08-19T04:59:18;14.00;99.90
28336;DHT22;15592;53.656;7.276;2022-08-19T05:01:45;14.00;99.90
28336;DHT22;15592;53.656;7.276;2022-08-19T05:04:16;14.10;99.90
28336;DHT22;15592;53.656;7.276;2022-08-19T05:06:42;14.10;99.90
28336;DHT22;15592;53.656;7.276;2022-08-19T05:09:08;14.10;99.90
28336;DHT22;15592;53.656;7.276;2022-08-19T05:11:36;14.10;99.90
28336;DHT22;15592;53.656;7.276;2022-08-19T05:14:06;14.10;99.90
28336;DHT22;15592;53.656;7.276;2022-08-19T05:16:32;14.10;99.90
28336;DHT22;15592;53.656;7.276;2022-08-19T05:19:00;14.00;99.90
28336;DHT22;15592;53.656;7.276;2022-08-19T05:21:44;14.00;99.90
28336;DHT22;15592;53.656;7.276;2022-08-19T05:24:29;14.00;99.90
28336;DHT22;15592;53.656;7.276;2022-08-19T05:26:55;14.00;99.90
28336;DHT22;15592;53.656;7.276;2022-08-19T05:29:26;14.10;99.90
28336;DHT22;15592;53.656;7.276;2022-08-19T05:31:54;14.10;99.90
28336;DHT22;15592;53.656;7.276;2022-08-19T05:34:21;14.20;99.90
28336;DHT22;15592;53.656;7.276;2022-08-19T05:36:48;14.30;99.90
28336;DHT22;15592;53.656;7.276;2022-08-19T05:39:18;14.40;99.90
28336;DHT22;15592;53.656;7.276;2022-08-19T05:41:46;14.50;99.90
28336;DHT22;15592;53.656;7.276;2022-08-19T05:44:13;14.60;99.90
28336;DHT22;15592;53.656;7.276;2022-08-19T05:46:40;14.70;99.90
28336;DHT22;15592;53.656;7.276;2022-08-19T05:49:08;14.80;99.90
28336;DHT22;15592;53.656;7.276;2022-08-19T05:51:35;14.90;99.90
28336;DHT22;15592;53.656;7.276;2022-08-19T05:54:03;15.00;99.90
28336;DHT22;15592;53.656;7.276;2022-08-19T05:56:30;15.10;99.90
28336;DHT22;15592;53.656;7.276;2022-08-19T05:58:56;15.20;99.90
28336;DHT22;15592;53.656;7.276;2022-08-19T06:01:25;15.30;99.90
28336;DHT22;15592;53.656;7.276;2022-08-19T06:03:50;15.40;99.90
28336;DHT22;15592;53.656;7.276;2022-08-19T06:06:17;15.40;99.90
28336;DHT22;15592;53.656;7.276;2022-08-19T06:08:43;15.50;99.90
28336;DHT22;15592;53.656;7.276;2022-08-19T06:14:16;15.60;99.90
28336;DHT22;15592;53.656;7.276;2022-08-19T06:16:43;15.70;99.90
28336;DHT22;15592;53.656;7.276;2022-08-19T06:19:12;15.70;99.90
28336;DHT22;15592;53.656;7.276;2022-08-19T06:21:40;15.80;99.90
28336;DHT22;15592;53.656;7.276;2022-08-19T06:24:08;15.80;99.90
28336;DHT22;15592;53.656;7.276;2022-08-19T06:26:36;15.90;99.90
28336;DHT22;15592;53.656;7.276;2022-08-19T06:29:04;16.00;99.90
28336;DHT22;15592;53.656;7.276;2022-08-19T06:31:32;16.10;99.90
28336;DHT22;15592;53.656;7.276;2022-08-19T06:34:00;16.10;99.90
28336;DHT22;15592;53.656;7.276;2022-08-19T06:36:33;16.30;99.90
28336;DHT22;15592;53.656;7.276;2022-08-19T06:39:08;16.40;99.90
28336;DHT22;15592;53.656;7.276;2022-08-19T06:41:36;16.40;99.90
28336;DHT22;15592;53.656;7.276;2022-08-19T06:44:03;16.50;99.90
28336;DHT22;15592;53.656;7.276;2022-08-19T06:46:29;16.50;99.90
28336;DHT22;15592;53.656;7.276;2022-08-19T06:48:56;16.60;99.90
28336;DHT22;15592;53.656;7.276;2022-08-19T06:51:23;16.60;99.90
28336;DHT22;15592;53.656;7.276;2022-08-19T06:53:51;16.60;99.90
28336;DHT22;15592;53.656;7.276;2022-08-19T06:56:19;16.60;99.90
28336;DHT22;15592;53.656;7.276;2022-08-19T06:58:47;16.70;99.90
28336;DHT22;15592;53.656;7.276;2022-08-19T07:01:15;16.70;99.90
28336;DHT22;15592;53.656;7.276;2022-08-19T07:03:41;16.70;99.90
28336;DHT22;15592;53.656;7.276;2022-08-19T07:06:10;16.80;99.90
28336;DHT22;15592;53.656;7.276;2022-08-19T07:08:37;16.80;99.90
28336;DHT22;15592;53.656;7.276;2022-08-19T07:11:11;16.90;99.90
28336;DHT22;15592;53.656;7.276;2022-08-19T07:13:39;17.00;99.90
28336;DHT22;15592;53.656;7.276;2022-08-19T07:16:10;17.00;99.90
28336;DHT22;15592;53.656;7.276;2022-08-19T07:18:36;17.10;99.90
28336;DHT22;15592;53.656;7.276;2022-08-19T07:21:11;17.10;99.90
28336;DHT22;15592;53.656;7.276;2022-08-19T07:23:37;17.20;99.90
28336;DHT22;15592;53.656;7.276;2022-08-19T07:26:25;17.20;99.90
28336;DHT22;15592;53.656;7.276;2022-08-19T07:28:51;17.30;99.90
28336;DHT22;15592;53.656;7.276;2022-08-19T07:31:20;17.30;99.90
28336;DHT22;15592;53.656;7.276;2022-08-19T07:33:47;17.30;99.90
28336;DHT22;15592;53.656;7.276;2022-08-19T07:36:16;17.40;99.90
28336;DHT22;15592;53.656;7.276;2022-08-19T07:38:46;17.40;99.90
28336;DHT22;15592;53.656;7.276;2022-08-19T07:41:18;17.40;99.90
28336;DHT22;15592;53.656;7.276;2022-08-19T07:43:44;17.50;99.90
28336;DHT22;15592;53.656;7.276;2022-08-19T07:46:12;17.50;99.90
28336;DHT22;15592;53.656;7.276;2022-08-19T07:48:40;17.50;99.90
28336;DHT22;15592;53.656;7.276;2022-08-19T07:51:08;17.60;99.90
28336;DHT22;15592;53.656;7.276;2022-08-19T07:53:36;17.70;99.90
28336;DHT22;15592;53.656;7.276;2022-08-19T07:56:03;17.80;99.90
28336;DHT22;15592;53.656;7.276;2022-08-19T07:58:32;17.90;99.90
28336;DHT22;15592;53.656;7.276;2022-08-19T08:00:58;18.00;99.90
28336;DHT22;15592;53.656;7.276;2022-08-19T08:03:25;18.10;99.90
28336;DHT22;15592;53.656;7.276;2022-08-19T08:06:12;18.20;99.90
28336;DHT22;15592;53.656;7.276;2022-08-19T08:08:57;18.30;99.90
28336;DHT22;15592;53.656;7.276;2022-08-19T08:11:50;18.40;99.90
28336;DHT22;15592;53.656;7.276;2022-08-19T08:14:22;18.50;99.90
28336;DHT22;15592;53.656;7.276;2022-08-19T08:16:49;18.50;99.90
28336;DHT22;15592;53.656;7.276;2022-08-19T08:19:17;18.50;99.90
28336;DHT22;15592;53.656;7.276;2022-08-19T08:21:43;18.60;99.90
28336;DHT22;15592;53.656;7.276;2022-08-19T08:24:09;18.70;99.90
28336;DHT22;15592;53.656;7.276;2022-08-19T08:26:34;18.80;99.90
28336;DHT22;15592;53.656;7.276;2022-08-19T08:29:00;18.80;99.90
28336;DHT22;15592;53.656;7.276;2022-08-19T08:31:26;18.90;99.90
28336;DHT22;15592;53.656;7.276;2022-08-19T08:33:52;19.00;99.90
28336;DHT22;15592;53.656;7.276;2022-08-19T08:36:18;19.10;99.90
28336;DHT22;15592;53.656;7.276;2022-08-19T08:38:44;19.10;99.90
28336;DHT22;15592;53.656;7.276;2022-08-19T08:41:35;19.20;99.90
28336;DHT22;15592;53.656;7.276;2022-08-19T08:44:03;19.30;99.90
28336;DHT22;15592;53.656;7.276;2022-08-19T08:49:06;19.40;99.90
28336;DHT22;15592;53.656;7.276;2022-08-19T08:51:46;19.40;99.90
28336;DHT22;15592;53.656;7.276;2022-08-19T08:54:14;19.50;99.90
28336;DHT22;15592;53.656;7.276;2022-08-19T08:56:43;19.60;99.90
28336;DHT22;15592;53.656;7.276;2022-08-19T08:59:23;19.60;99.90
28336;DHT22;15592;53.656;7.276;2022-08-19T09:01:51;19.60;99.90
28336;DHT22;15592;53.656;7.276;2022-08-19T09:04:16;19.70;99.90
28336;DHT22;15592;53.656;7.276;2022-08-19T09:09:43;19.90;99.90
28336;DHT22;15592;53.656;7.276;2022-08-19T09:12:31;20.00;99.90
28336;DHT22;15592;53.656;7.276;2022-08-19T09:15:09;20.00;99.90
28336;DHT22;15592;53.656;7.276;2022-08-19T09:17:36;20.10;99.90
28336;DHT22;15592;53.656;7.276;2022-08-19T09:22:40;20.20;99.90
28336;DHT22;15592;53.656;7.276;2022-08-19T09:25:08;20.20;99.90
28336;DHT22;15592;53.656;7.276;2022-08-19T09:27:37;20.30;99.90
28336;DHT22;15592;53.656;7.276;2022-08-19T09:30:04;20.40;99.90
28336;DHT22;15592;53.656;7.276;2022-08-19T09:32:30;20.50;99.90
28336;DHT22;15592;53.656;7.276;2022-08-19T09:34:56;20.60;99.90
28336;DHT22;15592;53.656;7.276;2022-08-19T09:37:24;20.60;99.90
28336;DHT22;15592;53.656;7.276;2022-08-19T09:39:49;20.70;99.90
28336;DHT22;15592;53.656;7.276;2022-08-19T09:42:15;20.80;99.90
28336;DHT22;15592;53.656;7.276;2022-08-19T09:44:41;20.90;99.90
28336;DHT22;15592;53.656;7.276;2022-08-19T09:47:09;20.90;99.90
28336;DHT22;15592;53.656;7.276;2022-08-19T09:49:35;21.00;99.90
28336;DHT22;15592;53.656;7.276;2022-08-19T09:52:04;21.00;99.90
28336;DHT22;15592;53.656;7.276;2022-08-19T09:54:30;21.10;99.90
28336;DHT22;15592;53.656;7.276;2022-08-19T09:56:58;21.10;99.90
28336;DHT22;15592;53.656;7.276;2022-08-19T09:59:25;21.20;99.90
28336;DHT22;15592;53.656;7.276;2022-08-19T10:01:51;21.30;99.90
28336;DHT22;15592;53.656;7.276;2022-08-19T10:04:17;21.40;99.90
28336;DHT22;15592;53.656;7.276;2022-08-19T10:06:42;21.50;99.90
28336;DHT22;15592;53.656;7.276;2022-08-19T10:09:10;21.50;99.90
28336;DHT22;15592;53.656;7.276;2022-08-19T10:11:39;21.50;99.90
28336;DHT22;15592;53.656;7.276;2022-08-19T10:14:06;21.50;99.90
28336;DHT22;15592;53.656;7.276;2022-08-19T10:16:32;21.50;99.90
28336;DHT22;15592;53.656;7.276;2022-08-19T10:18:58;21.60;99.90
28336;DHT22;15592;53.656;7.276;2022-08-19T10:21:27;21.70;99.90
28336;DHT22;15592;53.656;7.276;2022-08-19T10:23:56;21.70;99.90
28336;DHT22;15592;53.656;7.276;2022-08-19T10:26:26;21.80;99.90
28336;DHT22;15592;53.656;7.276;2022-08-19T10:28:52;21.80;99.90
28336;DHT22;15592;53.656;7.276;2022-08-19T10:31:20;21.90;99.90
28336;DHT22;15592;53.656;7.276;2022-08-19T10:33:47;22.00;99.90
28336;DHT22;15592;53.656;7.276;2022-08-19T10:36:16;22.10;99.90
28336;DHT22;15592;53.656;7.276;2022-08-19T10:38:44;22.10;99.90
28336;DHT22;15592;53.656;7.276;2022-08-19T10:41:15;22.10;99.90
28336;DHT22;15592;53.656;7.276;2022-08-19T10:43:41;22.10;99.90
28336;DHT22;15592;53.656;7.276;2022-08-19T10:46:09;22.10;99.90
28336;DHT22;15592;53.656;7.276;2022-08-19T10:48:36;22.20;99.90
28336;DHT22;15592;53.656;7.276;2022-08-19T10:51:02;22.20;99.90
28336;DHT22;15592;53.656;7.276;2022-08-19T10:53:46;22.20;99.90
28336;DHT22;15592;53.656;7.276;2022-08-19T10:56:12;22.20;99.90
28336;DHT22;15592;53.656;7.276;2022-08-19T10:58:57;22.20;99.90
28336;DHT22;15592;53.656;7.276;2022-08-19T11:01:24;22.20;99.90
28336;DHT22;15592;53.656;7.276;2022-08-19T11:03:50;22.10;99.90
28336;DHT22;15592;53.656;7.276;2022-08-19T11:06:15;22.00;99.90
28336;DHT22;15592;53.656;7.276;2022-08-19T11:08:41;22.00;99.90
28336;DHT22;15592;53.656;7.276;2022-08-19T11:11:10;21.90;99.90
28336;DHT22;15592;53.656;7.276;2022-08-19T11:13:38;21.80;99.90
28336;DHT22;15592;53.656;7.276;2022-08-19T11:18:30;21.50;99.90
28336;DHT22;15592;53.656;7.276;2022-08-19T11:21:15;21.60;99.90
28336;DHT22;15592;53.656;7.276;2022-08-19T11:23:45;21.70;99.90
28336;DHT22;15592;53.656;7.276;2022-08-19T11:26:11;21.90;99.90
28336;DHT22;15592;53.656;7.276;2022-08-19T11:28:37;22.10;99.90
28336;DHT22;15592;53.656;7.276;2022-08-19T11:31:02;22.30;99.90
28336;DHT22;15592;53.656;7.276;2022-08-19T11:33:30;22.40;99.90
28336;DHT22;15592;53.656;7.276;2022-08-19T11:35:58;22.60;99.90
28336;DHT22;15592;53.656;7.276;2022-08-19T11:38:25;22.70;99.90
28336;DHT22;15592;53.656;7.276;2022-08-19T11:40:59;22.80;99.90
28336;DHT22;15592;53.656;7.276;2022-08-19T11:43:25;22.90;99.90
28336;DHT22;15592;53.656;7.276;2022-08-19T11:45:53;22.90;99.90
28336;DHT22;15592;53.656;7.276;2022-08-19T11:48:19;22.90;99.90
28336;DHT22;15592;53.656;7.276;2022-08-19T11:50:48;22.90;99.90
28336;DHT22;15592;53.656;7.276;2022-08-19T11:53:15;23.00;99.90
28336;DHT22;15592;53.656;7.276;2022-08-19T11:55:41;23.00;99.90
28336;DHT22;15592;53.656;7.276;2022-08-19T11:58:08;23.00;99.90
28336;DHT22;15592;53.656;7.276;2022-08-19T12:00:34;23.00;99.90
28336;DHT22;15592;53.656;7.276;2022-08-19T12:03:02;23.00;99.90
28336;DHT22;15592;53.656;7.276;2022-08-19T12:05:28;23.00;99.90
28336;DHT22;15592;53.656;7.276;2022-08-19T12:07:54;23.00;99.90
28336;DHT22;15592;53.656;7.276;2022-08-19T12:10:21;23.00;99.90
28336;DHT22;15592;53.656;7.276;2022-08-19T12:12:46;23.00;99.90
28336;DHT22;15592;53.656;7.276;2022-08-19T12:15:13;23.00;99.90
28336;DHT22;15592;53.656;7.276;2022-08-19T12:17:42;23.00;99.90
28336;DHT22;15592;53.656;7.276;2022-08-19T12:20:10;23.00;99.90
28336;DHT22;15592;53.656;7.276;2022-08-19T12:22:39;23.00;99.90
28336;DHT22;15592;53.656;7.276;2022-08-19T12:25:07;23.00;99.90
28336;DHT22;15592;53.656;7.276;2022-08-19T12:27:34;23.10;99.90
28336;DHT22;15592;53.656;7.276;2022-08-19T12:30:01;23.10;99.90
28336;DHT22;15592;53.656;7.276;2022-08-19T12:32:27;23.20;99.90
28336;DHT22;15592;53.656;7.276;2022-08-19T12:34:53;23.20;99.90
28336;DHT22;15592;53.656;7.276;2022-08-19T12:37:19;23.20;99.90
28336;DHT22;15592;53.656;7.276;2022-08-19T12:39:45;23.20;99.90
28336;DHT22;15592;53.656;7.276;2022-08-19T12:42:12;23.10;99.90
28336;DHT22;15592;53.656;7.276;2022-08-19T12:44:40;23.00;99.90
28336;DHT22;15592;53.656;7.276;2022-08-19T12:47:07;23.00;99.90
28336;DHT22;15592;53.656;7.276;2022-08-19T12:49:34;23.00;99.90
28336;DHT22;15592;53.656;7.276;2022-08-19T12:52:03;22.90;99.90
28336;DHT22;15592;53.656;7.276;2022-08-19T12:54:29;22.90;99.90
28336;DHT22;15592;53.656;7.276;2022-08-19T12:56:56;22.90;99.90
28336;DHT22;15592;53.656;7.276;2022-08-19T12:59:22;22.90;99.90
28336;DHT22;15592;53.656;7.276;2022-08-19T13:01:48;23.00;99.90
28336;DHT22;15592;53.656;7.276;2022-08-19T13:04:13;23.00;99.90
28336;DHT22;15592;53.656;7.276;2022-08-19T13:06:39;23.00;99.90
28336;DHT22;15592;53.656;7.276;2022-08-19T13:09:05;23.00;99.90
28336;DHT22;15592;53.656;7.276;2022-08-19T13:11:30;23.10;99.90
28336;DHT22;15592;53.656;7.276;2022-08-19T13:14:00;23.10;99.90
28336;DHT22;15592;53.656;7.276;2022-08-19T13:16:26;23.10;99.90
28336;DHT22;15592;53.656;7.276;2022-08-19T13:18:54;23.10;99.90
28336;DHT22;15592;53.656;7.276;2022-08-19T13:21:22;23.10;99.90
28336;DHT22;15592;53.656;7.276;2022-08-19T13:23:49;23.10;99.90
28336;DHT22;15592;53.656;7.276;2022-08-19T13:26:16;23.10;99.90
28336;DHT22;15592;53.656;7.276;2022-08-19T13:28:43;23.20;99.90
28336;DHT22;15592;53.656;7.276;2022-08-19T13:31:30;23.10;99.90
28336;DHT22;15592;53.656;7.276;2022-08-19T13:34:16;23.10;99.90
28336;DHT22;15592;53.656;7.276;2022-08-19T13:36:42;23.10;99.90
28336;DHT22;15592;53.656;7.276;2022-08-19T13:39:08;23.10;99.90
28336;DHT22;15592;53.656;7.276;2022-08-19T13:41:35;23.20;99.90
28336;DHT22;15592;53.656;7.276;2022-08-19T13:44:02;23.20;99.90
28336;DHT22;15592;53.656;7.276;2022-08-19T13:46:28;23.30;99.90
28336;DHT22;15592;53.656;7.276;2022-08-19T13:48:54;23.40;99.90
28336;DHT22;15592;53.656;7.276;2022-08-19T13:51:21;23.50;99.90
28336;DHT22;15592;53.656;7.276;2022-08-19T13:53:47;23.50;99.90
28336;DHT22;15592;53.656;7.276;2022-08-19T13:56:15;23.60;99.90
28336;DHT22;15592;53.656;7.276;2022-08-19T13:58:41;23.70;99.90
28336;DHT22;15592;53.656;7.276;2022-08-19T14:01:08;23.70;99.90
28336;DHT22;15592;53.656;7.276;2022-08-19T14:03:35;23.60;99.90
28336;DHT22;15592;53.656;7.276;2022-08-19T14:06:01;23.60;99.90
28336;DHT22;15592;53.656;7.276;2022-08-19T14:08:27;23.50;99.90
28336;DHT22;15592;53.656;7.276;2022-08-19T14:10:54;23.50;99.90
28336;DHT22;15592;53.656;7.276;2022-08-19T14:13:21;23.50;99.90
28336;DHT22;15592;53.656;7.276;2022-08-19T14:15:47;23.60;99.90
28336;DHT22;15592;53.656;7.276;2022-08-19T14:18:14;23.60;99.90
28336;DHT22;15592;53.656;7.276;2022-08-19T14:20:40;23.70;99.90
28336;DHT22;15592;53.656;7.276;2022-08-19T14:23:06;23.80;99.90
28336;DHT22;15592;53.656;7.276;2022-08-19T14:25:32;23.90;99.90
28336;DHT22;15592;53.656;7.276;2022-08-19T14:27:59;23.80;99.90
28336;DHT22;15592;53.656;7.276;2022-08-19T14:30:28;23.70;99.90
28336;DHT22;15592;53.656;7.276;2022-08-19T14:32:55;23.70;99.90
28336;DHT22;15592;53.656;7.276;2022-08-19T14:35:22;23.60;99.90
28336;DHT22;15592;53.656;7.276;2022-08-19T14:37:49;23.50;99.90
28336;DHT22;15592;53.656;7.276;2022-08-19T14:40:17;23.40;99.90
28336;DHT22;15592;53.656;7.276;2022-08-19T14:42:45;23.30;99.90
28336;DHT22;15592;53.656;7.276;2022-08-19T14:45:12;23.20;99.90
28336;DHT22;15592;53.656;7.276;2022-08-19T14:47:38;23.10;99.90
28336;DHT22;15592;53.656;7.276;2022-08-19T14:50:09;23.00;99.90
28336;DHT22;15592;53.656;7.276;2022-08-19T14:52:35;22.90;99.90
28336;DHT22;15592;53.656;7.276;2022-08-19T14:55:02;22.80;99.90
28336;DHT22;15592;53.656;7.276;2022-08-19T14:57:28;22.70;99.90
28336;DHT22;15592;53.656;7.276;2022-08-19T14:59:53;22.60;99.90
28336;DHT22;15592;53.656;7.276;2022-08-19T15:02:19;22.50;99.90
28336;DHT22;15592;53.656;7.276;2022-08-19T15:04:45;22.50;99.90
28336;DHT22;15592;53.656;7.276;2022-08-19T15:07:11;22.40;99.90
28336;DHT22;15592;53.656;7.276;2022-08-19T15:09:37;22.40;99.90
28336;DHT22;15592;53.656;7.276;2022-08-19T15:12:03;22.40;99.90
28336;DHT22;15592;53.656;7.276;2022-08-19T15:14:29;22.30;99.90
28336;DHT22;15592;53.656;7.276;2022-08-19T15:17:01;22.20;99.90
28336;DHT22;15592;53.656;7.276;2022-08-19T15:19:26;22.20;99.90
28336;DHT22;15592;53.656;7.276;2022-08-19T15:21:52;22.10;99.90
28336;DHT22;15592;53.656;7.276;2022-08-19T15:24:20;22.10;99.90
28336;DHT22;15592;53.656;7.276;2022-08-19T15:26:45;22.10;99.90
28336;DHT22;15592;53.656;7.276;2022-08-19T15:29:11;22.10;99.90
28336;DHT22;15592;53.656;7.276;2022-08-19T15:31:41;22.10;99.90
28336;DHT22;15592;53.656;7.276;2022-08-19T15:34:07;22.10;99.90
28336;DHT22;15592;53.656;7.276;2022-08-19T15:36:34;22.10;99.90
28336;DHT22;15592;53.656;7.276;2022-08-19T15:39:00;22.00;99.90
28336;DHT22;15592;53.656;7.276;2022-08-19T15:41:28;22.00;99.90
28336;DHT22;15592;53.656;7.276;2022-08-19T15:44:04;22.00;99.90
28336;DHT22;15592;53.656;7.276;2022-08-19T15:46:33;22.00;99.90
28336;DHT22;15592;53.656;7.276;2022-08-19T15:49:00;22.00;99.90